< < Back
Terminal Aerodrome Forecast


Current Version              Previous Versions:   1  2  3  4  5  6  7  8  9  

Terminal Aerodrome Forecast

978
FTUS42 KFFC 021742
TAFCSG
TAF
KCSG 021742Z 0218/0318 08008KT P6SM SCT035
     FM030100 00000KT P6SM FEW250
     FM031600 29004KT P6SM FEW040=

Latest METAR

538
SAUS70 KWBC 031900 RRA
MTRCSG
METAR KCSG 031851Z VRB03KT 10SM FEW075 34/21 A2989 RMK AO2 SLP115
T03390211 $


USA.gov is the U.S. government's official web portal to all federal, state and local government web resources and services.